Time;durP1;ratioP1;P1;durP2;ratioP2;P2;SDS_P1;SDS_P2;PMS_P1;PMS_P2;Temp;Humidity;BMP_temperature;BMP_pressure;BME280_temperature;BME280_humidity;BME280_pressure;Samples;Min_cycle;Max_cycle;Signal;HPM_P1;HPM_P2
2024/01/04 00:01:14;;;;;;;209.60;96.75;;;5.00;99.90;;;;;;5117171;28;20020;-57
2024/01/04 00:03:40;;;;;;;228.32;104.38;;;5.00;99.90;;;;;;5117015;28;20072;-58
2024/01/04 00:06:06;;;;;;;225.05;100.45;;;4.90;99.90;;;;;;5116907;28;20019;-57
2024/01/04 00:08:32;;;;;;;212.73;98.35;;;5.00;99.90;;;;;;5116569;28;20023;-58
2024/01/04 00:10:58;;;;;;;232.63;111.00;;;5.10;99.90;;;;;;5116900;28;20030;-58
2024/01/04 00:13:24;;;;;;;241.48;107.78;;;5.00;99.90;;;;;;5116728;28;20358;-58
2024/01/04 00:15:50;;;;;;;206.25;90.68;;;5.00;99.90;;;;;;5116547;28;20115;-58
2024/01/04 00:18:16;;;;;;;171.45;79.30;;;5.00;99.90;;;;;;5116528;28;20476;-58
2024/01/04 00:20:42;;;;;;;190.88;87.38;;;4.80;99.90;;;;;;5116489;28;20039;-58
2024/01/04 00:23:08;;;;;;;184.90;83.80;;;4.60;99.90;;;;;;5116740;28;20112;-58
2024/01/04 00:25:34;;;;;;;223.93;93.55;;;4.60;99.90;;;;;;5116653;28;20500;-58
2024/01/04 00:28:00;;;;;;;545.70;177.10;;;4.60;99.90;;;;;;5116246;28;20054;-58
2024/01/04 00:30:26;;;;;;;543.35;172.13;;;4.60;99.90;;;;;;5116494;28;20388;-57
2024/01/04 00:32:52;;;;;;;319.20;117.45;;;4.60;99.90;;;;;;5116521;28;20031;-58
2024/01/04 00:35:18;;;;;;;273.83;109.72;;;4.70;99.90;;;;;;5114924;28;20034;-58
2024/01/04 00:37:44;;;;;;;275.45;107.20;;;4.70;99.90;;;;;;5114701;28;20028;-58
2024/01/04 00:40:11;;;;;;;458.35;153.48;;;4.70;99.90;;;;;;5116365;28;20111;-58
2024/01/04 00:42:37;;;;;;;479.00;160.55;;;4.70;99.90;;;;;;5115100;28;20111;-58
2024/01/04 00:45:03;;;;;;;624.70;216.30;;;4.60;99.90;;;;;;5116188;28;20063;-58
2024/01/04 00:47:29;;;;;;;638.42;219.63;;;4.70;99.90;;;;;;5114862;28;20139;-58
2024/01/04 00:49:55;;;;;;;527.35;179.70;;;4.70;99.90;;;;;;5116023;28;20054;-58
2024/01/04 00:52:21;;;;;;;556.05;184.25;;;4.80;99.90;;;;;;5116244;28;20385;-57
2024/01/04 00:54:46;;;;;;;450.50;152.23;;;4.70;99.90;;;;;;5116066;28;20023;-57
2024/01/04 00:57:12;;;;;;;378.38;137.52;;;4.80;99.90;;;;;;5115874;28;20385;-58
2024/01/04 00:59:38;;;;;;;382.55;139.48;;;4.80;99.90;;;;;;5114488;28;20043;-57
2024/01/04 01:02:04;;;;;;;386.27;138.50;;;4.90;99.90;;;;;;5115654;28;20031;-57
2024/01/04 01:04:30;;;;;;;379.15;133.82;;;4.80;99.90;;;;;;5114495;28;20832;-58
2024/01/04 01:06:56;;;;;;;294.98;111.50;;;5.00;99.90;;;;;;5115813;28;20027;-58
2024/01/04 01:09:22;;;;;;;290.42;106.80;;;5.00;99.90;;;;;;5114435;28;20106;-58
2024/01/04 01:11:48;;;;;;;280.88;107.60;;;5.10;99.90;;;;;;5114327;28;20034;-57
2024/01/04 01:14:13;;;;;;;278.80;105.95;;;5.10;99.90;;;;;;5115783;28;20024;-58
2024/01/04 01:16:39;;;;;;;341.90;119.18;;;5.20;99.90;;;;;;5114468;28;20400;-58
2024/01/04 01:19:05;;;;;;;308.00;117.25;;;5.10;99.90;;;;;;5114307;28;20119;-57
2024/01/04 01:21:31;;;;;;;285.50;113.07;;;5.10;99.90;;;;;;5115769;28;20065;-58
2024/01/04 01:23:57;;;;;;;233.00;98.53;;;5.10;99.90;;;;;;5115773;28;20059;-57
2024/01/04 01:26:23;;;;;;;229.43;95.10;;;5.10;99.90;;;;;;5115621;28;20032;-57
2024/01/04 01:28:50;;;;;;;281.02;102.95;;;5.10;99.90;;;;;;5114411;28;20104;-58
2024/01/04 01:31:15;;;;;;;270.60;96.38;;;5.10;99.90;;;;;;5114497;28;20027;-58
2024/01/04 01:33:45;;;;;;;233.80;87.25;;;5.20;99.90;;;;;;5114229;28;20038;-58
2024/01/04 01:36:11;;;;;;;231.85;88.38;;;5.20;99.90;;;;;;5115810;28;20073;-57
2024/01/04 01:38:37;;;;;;;257.13;93.18;;;5.20;99.90;;;;;;5115676;28;20035;-57
2024/01/04 01:41:03;;;;;;;286.13;99.68;;;5.10;99.90;;;;;;5114255;28;20119;-58
2024/01/04 01:43:28;;;;;;;250.57;95.30;;;5.10;99.90;;;;;;5114233;28;20080;-58
2024/01/04 01:45:55;;;;;;;204.52;85.07;;;5.10;99.90;;;;;;5114289;28;20024;-58
2024/01/04 01:48:21;;;;;;;175.40;74.20;;;5.10;99.90;;;;;;5115148;28;20058;-58
2024/01/04 01:50:47;;;;;;;160.50;67.93;;;5.20;99.90;;;;;;5119423;28;20024;-58
2024/01/04 01:53:14;;;;;;;167.20;67.68;;;5.20;99.90;;;;;;5119509;28;20063;-57
2024/01/04 01:55:40;;;;;;;152.93;66.45;;;5.20;99.90;;;;;;5119348;28;20031;-58
2024/01/04 01:58:06;;;;;;;141.35;59.92;;;5.20;99.90;;;;;;5119324;28;20492;-57
2024/01/04 02:00:33;;;;;;;162.60;66.05;;;5.20;99.90;;;;;;5117990;28;20036;-58
2024/01/04 02:02:59;;;;;;;133.85;62.40;;;5.20;99.90;;;;;;5117974;28;20057;-58
2024/01/04 02:05:25;;;;;;;152.82;65.82;;;5.20;99.90;;;;;;5119251;28;20037;-58
2024/01/04 02:07:51;;;;;;;149.73;67.25;;;5.20;99.90;;;;;;5117497;28;20027;-57
2024/01/04 02:10:17;;;;;;;147.20;66.28;;;5.20;99.90;;;;;;5119279;28;20034;-57
2024/01/04 02:12:44;;;;;;;145.70;64.20;;;5.20;99.90;;;;;;5117620;28;20038;-58
2024/01/04 02:15:10;;;;;;;146.57;67.82;;;5.20;99.90;;;;;;5117975;28;20028;-58
2024/01/04 02:17:36;;;;;;;147.00;63.80;;;5.10;99.90;;;;;;5117705;28;20118;-58
2024/01/04 02:20:03;;;;;;;143.10;66.13;;;5.10;99.90;;;;;;5119203;28;20057;-58
2024/01/04 02:22:30;;;;;;;142.45;65.40;;;5.00;99.90;;;;;;5117712;28;20114;-58
2024/01/04 02:24:56;;;;;;;143.77;65.97;;;5.10;99.90;;;;;;5117736;28;20036;-58
2024/01/04 02:27:22;;;;;;;161.77;71.80;;;5.20;99.90;;;;;;5118548;28;20522;-58
2024/01/04 02:29:48;;;;;;;162.75;70.28;;;5.10;99.90;;;;;;5117636;28;20027;-58
2024/01/04 02:32:13;;;;;;;142.05;64.47;;;5.10;99.90;;;;;;5117430;28;20047;-58
2024/01/04 02:34:39;;;;;;;137.85;64.43;;;5.10;99.90;;;;;;5116270;28;20043;-58
2024/01/04 02:37:05;;;;;;;142.00;65.70;;;5.10;99.90;;;;;;5117297;28;20099;-58
2024/01/04 02:39:31;;;;;;;144.02;64.35;;;5.00;99.90;;;;;;5118849;28;20400;-58
2024/01/04 02:41:57;;;;;;;154.13;69.07;;;5.10;99.90;;;;;;5118392;28;20032;-58
2024/01/04 02:44:23;;;;;;;159.98;68.80;;;5.10;99.90;;;;;;5116969;28;20177;-57
2024/01/04 02:46:48;;;;;;;140.38;60.88;;;5.00;99.90;;;;;;5117012;28;20024;-58
2024/01/04 02:49:14;;;;;;;148.45;65.10;;;5.10;99.90;;;;;;5116971;28;20032;-57
2024/01/04 02:51:40;;;;;;;141.40;63.75;;;5.10;99.90;;;;;;5118441;28;20380;-58
2024/01/04 02:54:08;;;;;;;152.30;66.80;;;5.10;99.90;;;;;;5117044;28;20072;-58
2024/01/04 02:56:34;;;;;;;142.15;64.40;;;5.10;99.90;;;;;;5117731;28;20045;-58
2024/01/04 02:59:01;;;;;;;134.93;60.65;;;5.10;99.90;;;;;;5118338;28;20480;-58
2024/01/04 03:01:27;;;;;;;145.13;61.97;;;5.10;99.90;;;;;;5116639;28;20458;-58
2024/01/04 03:03:55;;;;;;;146.43;63.70;;;5.10;99.90;;;;;;5118034;28;20103;-58
2024/01/04 03:06:29;;;;;;;121.88;56.50;;;5.10;99.90;;;;;;5117980;28;20491;-58
2024/01/04 03:08:56;;;;;;;118.18;55.58;;;5.20;99.90;;;;;;5117809;27;20504;-58
2024/01/04 03:11:22;;;;;;;108.20;51.60;;;5.20;99.90;;;;;;5118068;28;20457;-58
2024/01/04 03:13:47;;;;;;;111.47;52.47;;;5.20;99.90;;;;;;5117999;28;20027;-58
2024/01/04 03:16:19;;;;;;;106.43;53.90;;;5.20;99.90;;;;;;5117828;28;20016;-57
2024/01/04 03:18:45;;;;;;;113.15;54.55;;;5.10;99.90;;;;;;5117549;28;20024;-58
2024/01/04 03:21:11;;;;;;;109.30;53.78;;;5.00;99.90;;;;;;5117977;28;20030;-58
2024/01/04 03:23:37;;;;;;;105.78;49.63;;;5.10;99.90;;;;;;5117840;28;20030;-58
2024/01/04 03:26:03;;;;;;;100.68;49.40;;;5.10;99.90;;;;;;5117341;28;20092;-58
2024/01/04 03:28:28;;;;;;;103.68;48.00;;;5.10;99.90;;;;;;5117633;28;20385;-58
2024/01/04 03:30:54;;;;;;;100.53;47.67;;;5.20;99.90;;;;;;5117596;28;20098;-58
2024/01/04 03:33:20;;;;;;;108.88;47.85;;;5.10;99.90;;;;;;5117319;28;20520;-57
2024/01/04 03:35:46;;;;;;;126.22;61.50;;;5.10;99.90;;;;;;5117532;28;20024;-58
2024/01/04 03:38:12;;;;;;;117.00;57.63;;;5.10;99.90;;;;;;5117230;28;20027;-58
2024/01/04 03:40:38;;;;;;;120.95;55.58;;;5.10;99.90;;;;;;5117406;28;20115;-58
2024/01/04 03:43:04;;;;;;;131.48;65.75;;;5.10;99.90;;;;;;5117398;28;20031;-58
2024/01/04 03:45:33;;;;;;;127.10;57.67;;;5.00;99.90;;;;;;5117309;28;20062;-58
2024/01/04 03:47:59;;;;;;;121.95;58.60;;;5.10;99.90;;;;;;5116892;28;20468;-58
2024/01/04 03:50:25;;;;;;;106.80;52.25;;;5.10;99.90;;;;;;5117545;28;20065;-57
2024/01/04 03:52:51;;;;;;;110.93;52.00;;;5.10;99.90;;;;;;5117267;28;20027;-58
2024/01/04 03:55:18;;;;;;;119.57;54.83;;;5.20;99.90;;;;;;5116904;28;20149;-58
2024/01/04 03:57:44;;;;;;;135.25;61.45;;;5.20;99.90;;;;;;5117002;28;20126;-58
2024/01/04 04:00:11;;;;;;;144.98;66.50;;;5.30;99.90;;;;;;5117063;28;20034;-57
2024/01/04 04:02:40;;;;;;;143.65;65.45;;;5.30;99.90;;;;;;5116941;28;20035;-58
2024/01/04 04:05:06;;;;;;;122.63;59.20;;;5.40;99.90;;;;;;5117234;28;20023;-58
2024/01/04 04:07:32;;;;;;;116.63;56.35;;;5.40;99.90;;;;;;5116679;28;20469;-58
2024/01/04 04:09:58;;;;;;;115.88;58.08;;;5.40;99.90;;;;;;5116555;27;20035;-58
2024/01/04 04:12:25;;;;;;;119.45;55.65;;;5.40;99.90;;;;;;5116164;28;20448;-58
2024/01/04 04:14:51;;;;;;;126.57;62.80;;;5.30;99.90;;;;;;5116670;28;20031;-58
2024/01/04 04:17:24;;;;;;;119.68;58.13;;;5.30;99.90;;;;;;5116403;28;20080;-58
2024/01/04 04:19:51;;;;;;;126.60;62.45;;;5.20;99.90;;;;;;5116725;28;20027;-58
2024/01/04 04:22:16;;;;;;;115.35;57.55;;;5.20;99.90;;;;;;5116582;28;20036;-58
2024/01/04 04:24:42;;;;;;;101.45;49.05;;;5.20;99.90;;;;;;5116396;28;20091;-57
2024/01/04 04:27:08;;;;;;;92.00;42.72;;;5.30;99.90;;;;;;5116598;28;20462;-58
2024/01/04 04:29:34;;;;;;;85.95;42.45;;;5.40;99.90;;;;;;5116549;28;20107;-58
2024/01/04 04:32:00;;;;;;;90.50;43.47;;;5.40;99.90;;;;;;5116113;28;20501;-58
2024/01/04 04:34:25;;;;;;;93.55;44.00;;;5.30;99.90;;;;;;5116212;28;20036;-57
2024/01/04 04:36:51;;;;;;;88.03;43.70;;;5.20;99.90;;;;;;5116433;28;20081;-58
2024/01/04 04:39:17;;;;;;;87.55;45.42;;;5.10;99.90;;;;;;5116211;28;20023;-58
2024/01/04 04:41:43;;;;;;;88.00;42.72;;;5.10;99.90;;;;;;5116422;28;20028;-57
2024/01/04 04:44:09;;;;;;;90.20;42.30;;;5.10;99.90;;;;;;5116123;28;20039;-57
2024/01/04 04:46:35;;;;;;;91.35;42.65;;;5.20;99.90;;;;;;5114395;28;20040;-58
2024/01/04 04:49:00;;;;;;;86.90;43.90;;;5.20;99.90;;;;;;5116316;28;20312;-57
2024/01/04 04:51:26;;;;;;;72.88;38.60;;;5.20;99.90;;;;;;5116256;28;20038;-58
2024/01/04 04:53:52;;;;;;;91.63;44.75;;;5.20;99.90;;;;;;5116047;28;20038;-58
2024/01/04 04:56:18;;;;;;;98.03;44.75;;;5.30;99.90;;;;;;5114984;28;20039;-58
2024/01/04 04:58:44;;;;;;;116.15;52.38;;;5.20;99.90;;;;;;5115970;28;20077;-58
2024/01/04 05:01:10;;;;;;;108.78;51.40;;;5.10;99.90;;;;;;5115827;28;20473;-58
2024/01/04 05:03:36;;;;;;;108.25;49.50;;;5.10;99.90;;;;;;5116018;28;20027;-58
2024/01/04 05:06:02;;;;;;;100.85;48.58;;;5.10;99.90;;;;;;5116054;28;20420;-58
2024/01/04 05:08:29;;;;;;;98.78;48.60;;;5.20;99.90;;;;;;5115353;28;20062;-58
2024/01/04 05:10:55;;;;;;;96.43;47.97;;;5.20;99.90;;;;;;5116086;28;20020;-58
2024/01/04 05:13:20;;;;;;;95.90;46.22;;;5.30;99.90;;;;;;5115929;28;20091;-58
2024/01/04 05:15:47;;;;;;;109.32;50.55;;;5.40;99.90;;;;;;5115452;28;20054;-58
2024/01/04 05:18:13;;;;;;;98.60;50.13;;;5.60;99.90;;;;;;5116164;28;20034;-58
2024/01/04 05:20:40;;;;;;;96.75;47.00;;;5.60;99.90;;;;;;5115862;28;20028;-58
2024/01/04 05:23:07;;;;;;;97.00;47.20;;;5.60;99.90;;;;;;5116604;28;20028;-58
2024/01/04 05:25:33;;;;;;;110.45;47.33;;;5.60;99.90;;;;;;5120057;28;20133;-58
2024/01/04 05:27:59;;;;;;;94.13;43.97;;;5.60;99.90;;;;;;5119871;28;20509;-58
2024/01/04 05:30:25;;;;;;;84.50;43.15;;;5.70;99.90;;;;;;5119842;28;20047;-58
2024/01/04 05:32:51;;;;;;;80.93;41.13;;;5.70;99.90;;;;;;5118868;27;20362;-58
2024/01/04 05:35:17;;;;;;;86.53;40.70;;;5.70;99.90;;;;;;5119276;28;20027;-57
2024/01/04 05:37:43;;;;;;;96.82;45.47;;;5.70;99.90;;;;;;5119316;28;20046;-58
2024/01/04 05:40:09;;;;;;;82.47;38.95;;;5.80;99.90;;;;;;5118282;28;20107;-58
2024/01/04 05:42:35;;;;;;;95.30;42.53;;;5.90;99.90;;;;;;5119259;28;20035;-58
2024/01/04 05:45:02;;;;;;;87.20;40.40;;;5.90;99.90;;;;;;5118758;27;20066;-58
2024/01/04 05:47:28;;;;;;;86.75;36.92;;;5.90;99.90;;;;;;5119309;28;20032;-58
2024/01/04 05:49:55;;;;;;;83.63;37.50;;;5.90;99.90;;;;;;5119161;28;20384;-58
2024/01/04 05:52:21;;;;;;;73.05;33.47;;;5.90;99.90;;;;;;5119446;28;20114;-58
2024/01/04 05:54:47;;;;;;;65.72;33.60;;;6.00;99.90;;;;;;5119363;28;20090;-57
2024/01/04 05:57:13;;;;;;;76.55;33.38;;;6.00;99.90;;;;;;5119131;28;20045;-58
2024/01/04 05:59:38;;;;;;;84.90;40.90;;;6.00;99.90;;;;;;5119462;28;20028;-58
2024/01/04 06:02:04;;;;;;;83.80;44.80;;;6.10;99.90;;;;;;5119434;28;20024;-58
2024/01/04 06:04:30;;;;;;;62.60;35.92;;;6.10;99.90;;;;;;5119379;28;20035;-58
2024/01/04 06:06:56;;;;;;;98.03;48.30;;;6.20;99.90;;;;;;5117472;28;20040;-58
2024/01/04 06:09:22;;;;;;;105.13;51.75;;;6.10;99.90;;;;;;5118848;28;20024;-58
2024/01/04 06:11:48;;;;;;;119.18;57.53;;;6.20;99.90;;;;;;5119062;28;20020;-58
2024/01/04 06:14:14;;;;;;;99.45;51.47;;;6.30;99.90;;;;;;5119149;28;20046;-58
2024/01/04 06:16:40;;;;;;;112.10;54.58;;;6.30;99.90;;;;;;5118518;28;20028;-58
2024/01/04 06:19:05;;;;;;;126.93;60.05;;;6.30;99.90;;;;;;5117188;28;20054;-58
2024/01/04 06:21:31;;;;;;;146.73;73.65;;;6.30;99.90;;;;;;5116021;28;20019;-58
2024/01/04 06:23:58;;;;;;;145.15;74.68;;;6.40;99.90;;;;;;5109912;28;20023;-58
2024/01/04 06:26:24;;;;;;;172.60;83.82;;;6.60;99.90;;;;;;5119050;28;20516;-58
2024/01/04 06:28:50;;;;;;;163.50;80.40;;;6.70;99.90;;;;;;5118842;27;20085;-58
2024/01/04 06:31:16;;;;;;;155.02;80.28;;;6.70;99.90;;;;;;5111614;27;20032;-58
2024/01/04 06:33:42;;;;;;;144.75;75.68;;;6.80;99.90;;;;;;5118367;28;20415;-58
2024/01/04 06:36:08;;;;;;;138.98;72.03;;;6.90;99.90;;;;;;5117840;28;20023;-58
2024/01/04 06:38:37;;;;;;;141.20;71.22;;;7.00;99.90;;;;;;5118279;28;20028;-58
2024/01/04 06:41:03;;;;;;;136.50;66.20;;;7.00;99.90;;;;;;5116894;28;20055;-58
2024/01/04 06:43:30;;;;;;;114.15;56.42;;;7.00;99.90;;;;;;5118242;28;20035;-58
2024/01/04 06:45:57;;;;;;;28.00;13.65;;;6.90;99.90;;;;;;5112622;28;20932;-58
2024/01/04 06:48:23;;;;;;;34.30;12.85;;;7.50;99.90;;;;;;5118252;28;20028;-58
2024/01/04 06:50:49;;;;;;;50.08;21.73;;;8.00;99.90;;;;;;5118247;28;20477;-58
2024/01/04 06:53:15;;;;;;;41.22;18.13;;;8.30;99.90;;;;;;5116786;28;20026;-58
2024/01/04 06:55:42;;;;;;;16.88;4.50;;;8.50;99.90;;;;;;5118788;28;20532;-58
2024/01/04 06:58:10;;;;;;;16.05;4.25;;;8.90;99.90;;;;;;5118494;28;20107;-58
2024/01/04 07:00:36;;;;;;;12.43;4.95;;;9.40;99.90;;;;;;5117237;28;20389;-58
2024/01/04 07:03:03;;;;;;;22.80;10.68;;;9.40;99.90;;;;;;5108776;28;20028;-58
2024/01/04 07:05:30;;;;;;;30.40;15.07;;;9.40;99.90;;;;;;5110790;28;20040;-58
2024/01/04 07:07:56;;;;;;;31.38;13.55;;;9.30;99.90;;;;;;5116389;28;20027;-58
2024/01/04 07:10:22;;;;;;;13.18;7.13;;;9.30;99.90;;;;;;5116285;28;20023;-58
2024/01/04 07:12:48;;;;;;;19.35;7.97;;;9.30;99.90;;;;;;5117172;28;20026;-58
2024/01/04 07:15:14;;;;;;;39.22;19.63;;;9.30;99.90;;;;;;5114262;28;20373;-58
2024/01/04 07:17:40;;;;;;;46.15;19.95;;;9.40;99.90;;;;;;5117640;28;20058;-58
2024/01/04 07:20:06;;;;;;;63.58;25.90;;;9.50;99.90;;;;;;5117570;28;20108;-58
2024/01/04 07:22:33;;;;;;;28.10;10.30;;;9.60;99.90;;;;;;5117513;28;20027;-58
2024/01/04 07:25:00;;;;;;;17.60;7.03;;;9.70;99.90;;;;;;5117773;28;20039;-58
2024/01/04 07:27:29;;;;;;;41.15;20.83;;;9.70;99.90;;;;;;5117204;28;20062;-58
2024/01/04 07:29:56;;;;;;;13.23;5.53;;;9.70;99.90;;;;;;5115932;28;20024;-58
2024/01/04 07:32:22;;;;;;;18.85;8.32;;;9.60;99.90;;;;;;5116993;28;20024;-58
2024/01/04 07:34:48;;;;;;;17.20;7.60;;;9.50;99.90;;;;;;5116582;28;20028;-58
2024/01/04 07:37:15;;;;;;;25.88;9.60;;;9.50;99.90;;;;;;5116403;28;20085;-58
2024/01/04 07:39:41;;;;;;;20.10;6.90;;;9.50;99.90;;;;;;5110021;28;20044;-58
2024/01/04 07:42:09;;;;;;;17.02;5.22;;;9.40;99.90;;;;;;5115219;28;20032;-58
2024/01/04 07:44:35;;;;;;;18.13;5.18;;;9.40;99.90;;;;;;5115748;28;20057;-58
2024/01/04 07:47:01;;;;;;;18.77;5.57;;;9.30;99.90;;;;;;5114703;28;20032;-58
2024/01/04 07:49:27;;;;;;;7.85;2.60;;;9.30;99.90;;;;;;5116986;28;20035;-58
2024/01/04 07:51:53;;;;;;;11.63;6.00;;;9.30;99.90;;;;;;5110865;28;20129;-58
2024/01/04 07:54:20;;;;;;;17.65;5.95;;;9.30;99.90;;;;;;5115617;28;20027;-58
2024/01/04 07:56:45;;;;;;;9.73;2.83;;;9.30;99.90;;;;;;5117162;28;20085;-58
2024/01/04 07:59:11;;;;;;;14.15;3.20;;;9.30;99.90;;;;;;5115163;28;20028;-59
2024/01/04 08:01:38;;;;;;;5.95;1.90;;;9.30;99.90;;;;;;5115726;28;20028;-58
2024/01/04 08:04:06;;;;;;;10.10;3.50;;;9.30;99.90;;;;;;5116387;28;20027;-58
2024/01/04 08:06:32;;;;;;;21.83;12.25;;;9.30;99.90;;;;;;5114047;28;20465;-58
2024/01/04 08:08:58;;;;;;;25.35;11.38;;;9.30;99.90;;;;;;5116912;28;20042;-58
2024/01/04 08:11:24;;;;;;;37.45;10.43;;;9.30;99.90;;;;;;5117144;28;20447;-58
2024/01/04 08:13:51;;;;;;;33.83;8.43;;;9.30;99.90;;;;;;5116956;28;20028;-58
2024/01/04 08:16:18;;;;;;;36.83;11.10;;;9.20;99.90;;;;;;5114643;28;20016;-58
2024/01/04 08:18:44;;;;;;;34.17;10.27;;;9.30;99.90;;;;;;5105291;28;20060;-58
2024/01/04 08:21:10;;;;;;;31.70;10.23;;;9.30;99.90;;;;;;5096216;28;20226;-58
2024/01/04 08:23:40;;;;;;;28.92;11.50;;;9.30;99.90;;;;;;5096614;28;20028;-58
2024/01/04 08:26:06;;;;;;;88.93;41.05;;;9.30;99.90;;;;;;5107621;28;20068;-58
2024/01/04 08:28:31;;;;;;;33.65;16.60;;;9.30;99.90;;;;;;5116373;28;20102;-58
2024/01/04 08:30:57;;;;;;;45.13;21.88;;;9.20;99.90;;;;;;5116746;28;20044;-58
2024/01/04 08:33:23;;;;;;;41.45;16.77;;;9.20;99.90;;;;;;5116786;28;20351;-58
2024/01/04 08:35:49;;;;;;;58.20;25.83;;;9.20;99.90;;;;;;5116349;28;20027;-58
2024/01/04 08:38:15;;;;;;;51.13;23.00;;;9.20;99.90;;;;;;5116810;28;20039;-58
2024/01/04 08:40:41;;;;;;;93.65;29.75;;;9.10;99.90;;;;;;5116612;28;20048;-58
2024/01/04 08:43:07;;;;;;;61.75;23.00;;;9.20;99.90;;;;;;5116481;28;20027;-58
2024/01/04 08:45:33;;;;;;;26.90;12.10;;;9.20;99.90;;;;;;5116760;28;20122;-58
2024/01/04 08:47:59;;;;;;;19.42;5.65;;;9.20;99.90;;;;;;5116189;28;20034;-58
2024/01/04 08:50:24;;;;;;;25.13;10.30;;;9.30;99.90;;;;;;5115830;28;20073;-58
2024/01/04 08:52:51;;;;;;;78.47;44.22;;;9.30;99.90;;;;;;5116652;28;20027;-58
2024/01/04 08:55:19;;;;;;;35.13;20.77;;;9.30;99.90;;;;;;5116023;28;20111;-58
2024/01/04 08:57:46;;;;;;;30.88;16.85;;;9.30;99.90;;;;;;5114729;28;20053;-58
2024/01/04 09:00:13;;;;;;;28.95;15.13;;;9.30;99.90;;;;;;5115835;28;20042;-58
2024/01/04 09:02:39;;;;;;;34.20;20.00;;;9.20;99.90;;;;;;5112408;28;20358;-58
2024/01/04 09:05:05;;;;;;;46.13;26.83;;;9.30;99.90;;;;;;5115096;28;20085;-58
2024/01/04 09:07:31;;;;;;;47.17;17.63;;;9.30;99.90;;;;;;5115581;28;20026;-58
2024/01/04 09:09:57;;;;;;;33.85;17.13;;;9.40;99.90;;;;;;5115353;28;20477;-58
2024/01/04 09:12:23;;;;;;;33.78;16.40;;;9.40;99.90;;;;;;5112171;28;20051;-58
2024/01/04 09:14:49;;;;;;;28.15;14.75;;;9.50;99.90;;;;;;5104829;28;20099;-58
2024/01/04 09:17:15;;;;;;;35.67;17.38;;;9.50;99.90;;;;;;5115079;28;20107;-58
2024/01/04 09:19:41;;;;;;;19.75;9.93;;;9.60;99.90;;;;;;5114560;28;20043;-58
2024/01/04 09:22:07;;;;;;;25.10;10.18;;;9.60;99.90;;;;;;5115296;28;20387;-58
2024/01/04 09:24:34;;;;;;;56.45;20.20;;;9.60;99.90;;;;;;5115394;28;20046;-58
2024/01/04 09:27:00;;;;;;;77.63;27.45;;;9.60;99.90;;;;;;5114695;28;20378;-58
2024/01/04 09:29:26;;;;;;;59.22;24.08;;;9.70;99.90;;;;;;5103356;28;20020;-58
2024/01/04 09:31:52;;;;;;;57.00;23.33;;;9.70;99.90;;;;;;5115272;28;20491;-58
2024/01/04 09:34:18;;;;;;;77.82;30.98;;;9.70;99.90;;;;;;5115164;28;20024;-58
2024/01/04 09:36:44;;;;;;;71.55;31.27;;;9.90;99.90;;;;;;5115872;28;20023;-58
2024/01/04 09:39:14;;;;;;;61.88;27.02;;;9.90;99.90;;;;;;5115960;28;20457;-58
2024/01/04 09:41:44;;;;;;;63.95;28.23;;;10.10;99.90;;;;;;5115379;28;20032;-58
2024/01/04 09:44:11;;;;;;;66.45;28.17;;;10.20;99.90;;;;;;5115451;28;20111;-58
2024/01/04 09:46:38;;;;;;;66.90;29.15;;;10.30;99.90;;;;;;5115212;28;20031;-58
2024/01/04 09:49:05;;;;;;;52.53;23.30;;;10.30;99.90;;;;;;5115260;28;20058;-58
2024/01/04 09:51:39;;;;;;;41.22;17.42;;;10.30;99.90;;;;;;5115381;28;20434;-58
2024/01/04 09:54:09;;;;;;;34.97;15.68;;;10.40;99.90;;;;;;5113208;28;20020;-58
2024/01/04 09:56:40;;;;;;;57.03;29.65;;;10.50;99.90;;;;;;5114528;27;20023;-59
2024/01/04 09:59:07;;;;;;;74.70;42.22;;;10.50;99.90;;;;;;5114192;28;20020;-58
2024/01/04 10:01:35;;;;;;;97.95;51.15;;;10.50;99.90;;;;;;5115166;28;20030;-59
2024/01/04 10:04:06;;;;;;;101.13;50.83;;;10.60;99.90;;;;;;5112187;28;20035;-58
2024/01/04 10:06:33;;;;;;;;;;;10.70;99.90;;;;;;5113850;28;20072;-58
2024/01/04 10:16:34;;;;;;;219.05;120.03;;;10.90;99.90;;;;;;5072777;28;20090;-58
2024/01/04 10:19:01;;;;;;;128.13;71.35;;;10.90;99.90;;;;;;5077915;28;20036;-58
2024/01/04 10:21:33;;;;;;;80.10;46.38;;;11.10;99.90;;;;;;5078751;28;20032;-58
2024/01/04 10:24:00;;;;;;;70.22;41.70;;;11.20;99.90;;;;;;5078611;28;20039;-58
2024/01/04 10:26:27;;;;;;;64.38;36.08;;;11.20;99.90;;;;;;5096412;28;20157;-58
2024/01/04 10:28:59;;;;;;;66.60;36.47;;;11.20;99.90;;;;;;5098747;28;20390;-58
2024/01/04 10:31:28;;;;;;;52.60;31.13;;;11.30;99.90;;;;;;5099044;28;20504;-58
2024/01/04 10:34:00;;;;;;;61.67;33.08;;;11.30;99.90;;;;;;5094666;28;20098;-58
2024/01/04 10:36:30;;;;;;;61.45;36.17;;;11.40;99.90;;;;;;5098329;28;20611;-58
2024/01/04 10:39:06;;;;;;;68.38;40.25;;;11.40;99.90;;;;;;5098120;28;20080;-58
2024/01/04 10:41:32;;;;;;;65.05;33.08;;;11.50;99.90;;;;;;5077363;28;20116;-59
2024/01/04 10:44:06;;;;;;;65.40;35.15;;;11.60;99.90;;;;;;5077839;28;20096;-59
2024/01/04 10:46:35;;;;;;;58.85;33.42;;;11.70;99.90;;;;;;5077499;28;20032;-58
2024/01/04 10:49:02;;;;;;;64.38;35.20;;;12.00;99.90;;;;;;5077337;28;20104;-58
2024/01/04 10:51:31;;;;;;;50.63;28.10;;;12.30;99.90;;;;;;5080208;28;20054;-59
2024/01/04 10:54:03;;;;;;;50.55;26.35;;;12.40;99.90;;;;;;5098122;28;20039;-59
2024/01/04 10:56:30;;;;;;;51.17;25.27;;;12.60;99.90;;;;;;5092834;28;20038;-59
2024/01/04 10:58:57;;;;;;;52.47;28.08;;;12.80;99.90;;;;;;5097137;28;20029;-58
2024/01/04 11:01:24;;;;;;;53.47;28.52;;;12.90;99.90;;;;;;5097375;28;20130;-59
2024/01/04 11:03:54;;;;;;;44.67;25.27;;;13.00;99.90;;;;;;5097156;28;20296;-59
2024/01/04 11:06:22;;;;;;;48.92;28.27;;;13.10;99.90;;;;;;5097520;28;20496;-59
2024/01/04 11:08:50;;;;;;;49.72;29.58;;;12.90;99.90;;;;;;5096779;28;20444;-58
2024/01/04 11:11:17;;;;;;;42.22;27.10;;;13.00;99.90;;;;;;5090536;28;20028;-58
2024/01/04 11:13:43;;;;;;;43.45;26.02;;;13.20;99.90;;;;;;5095083;28;20024;-58
2024/01/04 11:16:45;;;;;;;36.28;22.35;;;13.20;99.90;;;;;;5097367;28;20036;-58
2024/01/04 11:19:22;;;;;;;37.53;19.35;;;13.10;99.90;;;;;;5093949;28;20088;-58
2024/01/04 11:22:03;;;;;;;67.95;40.38;;;13.40;99.90;;;;;;5097208;28;20028;-58
2024/01/04 11:24:29;;;;;;;;;;;13.80;99.90;;;;;;5096720;28;20032;-58
2024/01/04 11:26:58;;;;;;;59.50;33.80;;;14.10;99.90;;;;;;5096752;28;20326;-59
2024/01/04 11:29:26;;;;;;;51.22;27.50;;;14.70;99.90;;;;;;5097014;28;20043;-59
2024/01/04 11:31:56;;;;;;;38.80;21.83;;;15.40;98.50;;;;;;5097319;28;20036;-59
2024/01/04 11:34:25;;;;;;;35.00;19.08;;;16.10;95.30;;;;;;5094652;28;20030;-59
2024/01/04 11:36:54;;;;;;;32.85;19.25;;;16.70;92.60;;;;;;5095560;28;20028;-59
2024/01/04 11:39:28;;;;;;;34.58;19.75;;;16.90;90.50;;;;;;5095540;28;20686;-59
2024/01/04 11:41:55;;;;;;;29.48;16.73;;;17.80;90.50;;;;;;5096450;28;20081;-59
2024/01/04 11:44:21;;;;;;;40.97;20.55;;;18.10;88.70;;;;;;5096942;28;20034;-59
2024/01/04 11:46:53;;;;;;;37.00;19.27;;;18.30;82.10;;;;;;5096793;28;20111;-59
2024/01/04 11:49:22;;;;;;;33.60;17.33;;;18.60;79.30;;;;;;5096867;28;20027;-59
2024/01/04 11:51:48;;;;;;;37.55;19.80;;;19.60;77.70;;;;;;5095119;28;20389;-59
2024/01/04 11:54:17;;;;;;;36.28;20.45;;;20.80;72.30;;;;;;5095392;28;20045;-59
2024/01/04 11:56:43;;;;;;;30.90;16.90;;;21.10;69.20;;;;;;5095561;28;20024;-59
2024/01/04 11:59:15;;;;;;;34.20;18.00;;;20.90;66.10;;;;;;5093146;28;20016;-59
2024/01/04 12:01:42;;;;;;;26.02;13.70;;;21.30;63.50;;;;;;5086408;28;20035;-59
2024/01/04 12:04:09;;;;;;;31.08;15.25;;;21.70;58.60;;;;;;5096353;28;20028;-59
2024/01/04 12:06:38;;;;;;;25.33;11.38;;;22.10;58.30;;;;;;5096089;28;20020;-59
2024/01/04 12:09:09;;;;;;;9.45;3.47;;;22.30;54.20;;;;;;5087838;28;20086;-59
2024/01/04 12:11:43;;;;;;;12.73;4.20;;;21.60;51.30;;;;;;5093530;28;20044;-59
2024/01/04 12:14:09;;;;;;;8.73;4.88;;;21.10;50.60;;;;;;5096660;28;20454;-59
2024/01/04 12:16:38;;;;;;;7.15;3.70;;;21.40;50.30;;;;;;5095992;28;20024;-59
2024/01/04 12:19:04;;;;;;;7.55;3.35;;;21.40;48.60;;;;;;5095746;28;20054;-59
2024/01/04 12:21:30;;;;;;;13.70;3.95;;;21.60;51.00;;;;;;5096056;28;20031;-59
2024/01/04 12:23:56;;;;;;;17.23;4.38;;;21.70;48.50;;;;;;5096441;28;20039;-59
2024/01/04 12:26:23;;;;;;;10.10;2.50;;;21.50;48.50;;;;;;5096445;28;20028;-59
2024/01/04 12:28:53;;;;;;;13.45;3.88;;;21.30;44.70;;;;;;5096409;28;20028;-59
2024/01/04 12:31:25;;;;;;;15.45;4.63;;;21.20;46.70;;;;;;5096589;28;20024;-59
2024/01/04 12:33:55;;;;;;;15.25;4.43;;;21.50;46.60;;;;;;5095432;28;20456;-59
2024/01/04 12:36:22;;;;;;;12.93;3.17;;;21.70;45.60;;;;;;5096112;28;20040;-59